createdAt,value
2023-03-17T00:00:58.641Z,40.16
2023-03-17T00:03:30.693Z,40.20
2023-03-17T00:06:02.006Z,40.21
2023-03-17T00:08:38.663Z,40.21
2023-03-17T00:11:14.159Z,40.29
2023-03-17T00:13:44.750Z,40.35
2023-03-17T00:16:19.265Z,40.39
2023-03-17T00:18:49.602Z,40.44
2023-03-17T00:21:26.198Z,40.44
2023-03-17T00:23:59.774Z,40.48
2023-03-17T00:26:29.769Z,40.51
2023-03-17T00:28:58.964Z,40.68
2023-03-17T00:31:30.459Z,40.80
2023-03-17T00:34:00.707Z,40.81
2023-03-17T00:36:33.392Z,40.83
2023-03-17T00:39:17.333Z,40.82
2023-03-17T00:41:49.593Z,40.83
2023-03-17T00:44:18.888Z,40.83
2023-03-17T00:46:48.395Z,40.85
2023-03-17T00:49:21.529Z,40.85
2023-03-17T00:51:51.847Z,40.88
2023-03-17T00:54:24.194Z,40.93
2023-03-17T00:56:53.803Z,40.95
2023-03-17T00:59:28.931Z,40.97
2023-03-17T01:01:58.671Z,40.99
2023-03-17T01:04:28.004Z,41.02
2023-03-17T01:06:59.421Z,41.04
2023-03-17T01:09:31.830Z,41.07
2023-03-17T01:12:01.609Z,41.08
2023-03-17T01:14:30.908Z,41.11
2023-03-17T01:17:00.266Z,41.11
2023-03-17T01:19:29.646Z,41.12
2023-03-17T01:21:58.924Z,41.15
2023-03-17T01:24:31.941Z,41.16
2023-03-17T01:27:01.168Z,41.20
2023-03-17T01:29:30.817Z,41.18
2023-03-17T01:32:00.373Z,41.22
2023-03-17T01:34:29.942Z,41.23
2023-03-17T01:37:00.136Z,41.26
2023-03-17T01:39:31.915Z,41.28
2023-03-17T01:42:02.058Z,41.29
2023-03-17T01:44:32.108Z,41.32
2023-03-17T01:47:01.235Z,41.35
2023-03-17T01:49:35.579Z,41.37
2023-03-17T01:52:09.898Z,41.38
2023-03-17T01:54:48.274Z,41.39
2023-03-17T01:57:23.777Z,41.40
2023-03-17T01:59:57.710Z,41.41
2023-03-17T02:02:32.767Z,41.43
2023-03-17T02:05:03.774Z,41.45
2023-03-17T02:07:34.117Z,41.47
2023-03-17T02:10:09.240Z,41.51
2023-03-17T02:12:39.995Z,41.50
2023-03-17T02:15:11.198Z,41.50
2023-03-17T02:17:40.425Z,41.54
2023-03-17T02:20:40.356Z,41.56
2023-03-17T02:23:12.668Z,41.55
2023-03-17T02:25:45.476Z,41.53
2023-03-17T02:28:19.763Z,41.62
2023-03-17T02:30:49.126Z,41.79
2023-03-17T02:33:19.133Z,41.79
2023-03-17T02:35:49.053Z,41.77
2023-03-17T02:38:20.833Z,41.80
2023-03-17T02:40:50.219Z,41.78
2023-03-17T02:43:20.076Z,41.79
2023-03-17T02:45:49.510Z,41.78
2023-03-17T02:48:19.732Z,41.76
2023-03-17T02:50:48.910Z,41.74
2023-03-17T02:53:21.296Z,41.74
2023-03-17T02:55:50.570Z,41.71
2023-03-17T02:58:19.961Z,41.74
2023-03-17T03:00:49.893Z,41.75
2023-03-17T03:03:19.058Z,41.75
2023-03-17T03:05:49.201Z,41.76
2023-03-17T03:08:22.258Z,41.78
2023-03-17T03:10:51.392Z,41.79
2023-03-17T03:13:20.861Z,41.80
2023-03-17T03:15:50.705Z,41.81
2023-03-17T03:18:20.388Z,41.82
2023-03-17T03:20:49.869Z,41.87
2023-03-17T03:23:22.042Z,41.90
2023-03-17T03:25:51.699Z,41.88
2023-03-17T03:28:21.605Z,41.89
2023-03-17T03:30:51.138Z,41.89
2023-03-17T03:33:20.981Z,41.91
2023-03-17T03:35:50.444Z,41.92
2023-03-17T03:38:22.340Z,41.92
2023-03-17T03:40:51.704Z,41.93
2023-03-17T03:43:23.885Z,41.94
2023-03-17T03:45:54.735Z,41.96
2023-03-17T03:48:24.861Z,41.98
2023-03-17T03:50:58.033Z,41.97
2023-03-17T03:53:31.176Z,41.99
2023-03-17T03:56:01.044Z,42.00
2023-03-17T03:58:30.336Z,42.01
2023-03-17T04:00:59.674Z,42.02
2023-03-17T04:03:28.990Z,42.01
2023-03-17T04:05:58.362Z,42.05
2023-03-17T04:08:31.868Z,42.04
2023-03-17T04:11:01.151Z,42.04
2023-03-17T04:13:30.917Z,42.08
2023-03-17T04:16:01.421Z,42.10
2023-03-17T04:18:31.731Z,42.11
2023-03-17T04:21:01.730Z,42.11
2023-03-17T04:23:33.585Z,42.13
2023-03-17T04:26:04.130Z,42.13
2023-03-17T04:28:33.275Z,42.20
2023-03-17T04:31:02.535Z,42.34
2023-03-17T04:33:31.802Z,42.28
2023-03-17T04:36:01.684Z,42.23
2023-03-17T04:38:33.699Z,42.25
2023-03-17T04:41:02.993Z,42.23
2023-03-17T04:43:32.570Z,42.23
2023-03-17T04:46:01.916Z,42.23
2023-03-17T04:48:31.650Z,42.24
2023-03-17T04:51:00.810Z,42.23
2023-03-17T04:53:33.062Z,42.23
2023-03-17T04:56:02.280Z,42.21
2023-03-17T04:58:31.684Z,42.23
2023-03-17T05:01:02.584Z,42.23
2023-03-17T05:03:33.382Z,42.21
2023-03-17T05:06:03.153Z,42.20
2023-03-17T05:08:34.972Z,42.18
2023-03-17T05:11:04.977Z,42.20
2023-03-17T05:13:34.236Z,42.19
2023-03-17T05:16:03.659Z,42.20
2023-03-17T05:18:32.943Z,42.19
2023-03-17T05:21:02.131Z,42.37
2023-03-17T05:23:34.552Z,42.62
2023-03-17T05:26:04.075Z,42.63
2023-03-17T05:28:33.996Z,42.59
2023-03-17T05:31:03.757Z,42.59
2023-03-17T05:33:33.169Z,42.56
2023-03-17T05:36:03.719Z,42.48
2023-03-17T05:38:35.544Z,42.31
2023-03-17T05:41:05.573Z,42.00
2023-03-17T05:43:35.142Z,41.61
2023-03-17T05:46:05.994Z,41.15
2023-03-17T05:48:35.561Z,40.74
2023-03-17T05:51:05.408Z,40.30
2023-03-17T05:53:37.508Z,40.00
2023-03-17T05:56:07.518Z,39.71
2023-03-17T05:58:37.140Z,39.45
2023-03-17T06:01:06.821Z,39.21
2023-03-17T06:03:38.845Z,39.00
2023-03-17T06:06:09.402Z,38.84
2023-03-17T06:08:41.392Z,38.72
2023-03-17T06:11:10.602Z,38.62
2023-03-17T06:13:40.025Z,38.50
2023-03-17T06:16:09.908Z,38.41
2023-03-17T06:18:39.122Z,38.31
2023-03-17T06:21:08.535Z,38.25
2023-03-17T06:23:40.643Z,38.19
2023-03-17T06:26:09.767Z,38.17
2023-03-17T06:28:39.079Z,38.20
2023-03-17T06:31:09.159Z,38.31
2023-03-17T06:33:39.040Z,38.31
2023-03-17T06:36:08.913Z,38.33
2023-03-17T06:38:41.641Z,38.36
2023-03-17T06:41:11.160Z,38.37
2023-03-17T06:43:40.613Z,38.41
2023-03-17T06:46:10.656Z,38.45
2023-03-17T06:48:40.772Z,38.52
2023-03-17T06:51:11.116Z,38.59
2023-03-17T06:53:43.130Z,38.67
2023-03-17T06:56:23.573Z,38.72
2023-03-17T06:58:58.366Z,38.78
2023-03-17T07:01:28.933Z,38.86
2023-03-17T07:03:58.203Z,38.90
2023-03-17T07:06:28.699Z,38.96
2023-03-17T07:09:02.291Z,38.99
2023-03-17T07:11:32.824Z,39.00
2023-03-17T07:14:02.931Z,39.03
2023-03-17T07:16:33.077Z,39.04
2023-03-17T07:19:02.344Z,39.04
2023-03-17T07:21:31.738Z,39.03
2023-03-17T07:24:04.565Z,39.04
2023-03-17T07:26:33.758Z,39.02
2023-03-17T07:29:03.325Z,39.09
2023-03-17T07:31:32.684Z,39.18
2023-03-17T07:34:02.128Z,39.21
2023-03-17T07:36:31.529Z,39.24
2023-03-17T07:39:03.980Z,39.28
2023-03-17T07:41:33.251Z,39.32
2023-03-17T07:44:03.979Z,39.32
2023-03-17T07:46:33.621Z,39.32
2023-03-17T07:49:03.055Z,39.33
2023-03-17T07:51:32.473Z,39.33
2023-03-17T07:54:05.939Z,39.32
2023-03-17T07:56:35.350Z,39.40
2023-03-17T07:59:04.721Z,39.42
2023-03-17T08:01:34.278Z,39.41
2023-03-17T08:04:05.151Z,39.38
2023-03-17T08:06:34.559Z,39.36
2023-03-17T08:09:06.597Z,39.34
2023-03-17T08:11:36.165Z,39.31
2023-03-17T08:14:06.691Z,39.29
2023-03-17T08:16:36.158Z,39.28
2023-03-17T08:19:06.924Z,39.29
2023-03-17T08:21:36.615Z,39.27
2023-03-17T08:24:08.698Z,39.26
2023-03-17T08:26:38.391Z,39.26
2023-03-17T08:29:08.239Z,39.34
2023-03-17T08:31:40.542Z,39.40
2023-03-17T08:34:10.153Z,39.38
2023-03-17T08:36:39.575Z,39.39
2023-03-17T08:39:12.011Z,39.40
2023-03-17T08:41:41.871Z,39.40
2023-03-17T08:44:11.913Z,39.40
2023-03-17T08:46:41.605Z,39.41
2023-03-17T08:49:11.345Z,39.46
2023-03-17T08:51:42.007Z,39.50
2023-03-17T08:54:14.213Z,39.53
2023-03-17T08:56:43.621Z,39.56
2023-03-17T08:59:13.417Z,39.56
2023-03-17T09:01:45.146Z,39.58
2023-03-17T09:04:15.526Z,39.58
2023-03-17T09:07:01.908Z,39.60
2023-03-17T09:09:36.665Z,39.62
2023-03-17T09:12:08.160Z,39.63
2023-03-17T09:14:43.878Z,39.64
2023-03-17T09:17:15.470Z,39.60
2023-03-17T09:19:44.977Z,39.61
2023-03-17T09:22:16.035Z,39.78
2023-03-17T09:24:47.898Z,39.78
2023-03-17T09:27:17.145Z,39.81
2023-03-17T09:32:57.186Z,36.95
2023-03-17T09:35:28.206Z,39.56
2023-03-17T09:37:57.478Z,40.71
2023-03-17T09:40:34.214Z,41.26
2023-03-17T09:43:17.329Z,40.78
2023-03-17T09:45:48.529Z,39.97
2023-03-17T09:48:44.125Z,40.18
2023-03-17T09:51:19.433Z,40.32
2023-03-17T09:54:00.021Z,39.90
2023-03-17T09:56:33.682Z,40.00
2023-03-17T09:59:08.859Z,39.97
2023-03-17T10:01:44.122Z,40.01
2023-03-17T10:04:18.738Z,40.03
2023-03-17T10:06:50.588Z,40.07
2023-03-17T10:09:27.992Z,40.11
2023-03-17T10:12:10.005Z,40.15
2023-03-17T10:14:51.429Z,40.17
2023-03-17T10:17:23.217Z,40.17
2023-03-17T10:20:02.071Z,40.19
2023-03-17T10:22:39.836Z,40.26
2023-03-17T10:25:17.748Z,40.29
2023-03-17T10:27:54.600Z,40.34
2023-03-17T10:30:26.067Z,40.40
2023-03-17T10:33:00.915Z,40.44
2023-03-17T10:35:36.449Z,40.49
2023-03-17T10:38:18.001Z,40.55
2023-03-17T10:40:57.042Z,40.59
2023-03-17T10:43:31.124Z,40.62
2023-03-17T10:46:03.207Z,40.65
2023-03-17T10:48:38.149Z,40.66
2023-03-17T10:51:13.052Z,40.70
2023-03-17T10:53:44.104Z,40.72
2023-03-17T10:56:27.471Z,40.74
2023-03-17T10:58:57.127Z,40.79
2023-03-17T11:01:35.040Z,40.83
2023-03-17T11:04:20.273Z,40.89
2023-03-17T11:06:53.066Z,40.94
2023-03-17T11:09:22.342Z,40.97
2023-03-17T11:12:02.354Z,41.01
2023-03-17T11:14:32.133Z,41.04
2023-03-17T11:17:03.750Z,41.06
2023-03-17T11:19:44.511Z,41.10
2023-03-17T11:22:21.871Z,41.13
2023-03-17T11:25:06.840Z,41.16
2023-03-17T11:27:44.623Z,41.18
2023-03-17T11:30:26.225Z,41.21
2023-03-17T11:33:03.314Z,41.38
2023-03-17T11:35:44.998Z,41.48
2023-03-17T11:38:26.015Z,41.50
2023-03-17T11:41:33.014Z,41.52
2023-03-17T11:44:31.683Z,41.54
2023-03-17T11:47:15.260Z,41.56
2023-03-17T11:49:53.093Z,41.56
2023-03-17T11:52:30.430Z,41.59
2023-03-17T11:55:16.406Z,41.61
2023-03-17T11:57:54.660Z,41.62
2023-03-17T12:00:32.066Z,41.61
2023-03-17T12:03:13.484Z,41.63
2023-03-17T12:05:45.511Z,41.66
2023-03-17T12:08:30.007Z,41.65
2023-03-17T12:11:08.571Z,41.64
2023-03-17T12:13:46.117Z,41.66
2023-03-17T12:16:25.786Z,41.69
2023-03-17T12:19:06.847Z,41.68
2023-03-17T12:21:43.088Z,41.70
2023-03-17T12:24:20.247Z,41.70
2023-03-17T12:26:59.502Z,41.70
2023-03-17T12:29:43.280Z,41.70
2023-03-17T12:32:20.020Z,41.73
2023-03-17T12:34:57.173Z,41.75
2023-03-17T12:37:30.292Z,41.76
2023-03-17T12:40:07.432Z,41.77
2023-03-17T12:42:54.818Z,41.80
2023-03-17T12:45:47.758Z,41.80
2023-03-17T12:48:53.843Z,41.81
2023-03-17T12:52:03.126Z,41.81
2023-03-17T12:54:37.121Z,41.81
2023-03-17T12:57:15.658Z,41.82
2023-03-17T12:59:51.412Z,41.82
2023-03-17T13:02:36.798Z,41.85
2023-03-17T13:05:11.529Z,41.85
2023-03-17T13:07:49.319Z,41.87
2023-03-17T13:10:40.970Z,41.88
2023-03-17T13:13:23.641Z,41.90
2023-03-17T13:15:59.510Z,41.95
2023-03-17T13:18:48.966Z,41.97
2023-03-17T13:21:29.218Z,42.00
2023-03-17T13:24:24.949Z,42.02
2023-03-17T13:27:04.648Z,42.04
2023-03-17T13:29:46.146Z,42.05
2023-03-17T13:32:32.445Z,42.10
2023-03-17T13:35:19.100Z,42.25
2023-03-17T13:38:13.131Z,42.21
2023-03-17T13:40:59.136Z,42.20
2023-03-17T13:43:49.726Z,42.19
2023-03-17T13:46:28.147Z,42.13
2023-03-17T13:48:59.122Z,42.13
2023-03-17T13:51:34.457Z,42.14
2023-03-17T13:54:20.706Z,42.15
2023-03-17T13:56:54.976Z,42.17
2023-03-17T13:59:37.189Z,42.15
2023-03-17T14:02:18.511Z,42.16
2023-03-17T14:04:55.551Z,42.17
2023-03-17T14:07:29.004Z,42.14
2023-03-17T14:10:02.774Z,42.15
2023-03-17T14:12:51.556Z,42.15
2023-03-17T14:15:28.367Z,42.17
2023-03-17T14:18:04.873Z,42.17
2023-03-17T14:20:34.370Z,42.17
2023-03-17T14:23:06.797Z,42.18
2023-03-17T14:25:38.795Z,42.17
2023-03-17T14:28:17.515Z,42.17
2023-03-17T14:30:54.134Z,42.19
2023-03-17T14:33:27.180Z,42.20
2023-03-17T14:36:00.557Z,42.23
2023-03-17T14:38:32.964Z,42.26
2023-03-17T14:41:05.170Z,42.26
2023-03-17T14:43:38.733Z,42.25
2023-03-17T14:46:14.775Z,42.26
2023-03-17T14:48:48.241Z,42.27
2023-03-17T14:51:28.052Z,42.29
2023-03-17T14:54:02.112Z,42.29
2023-03-17T14:56:37.023Z,42.31
2023-03-17T14:59:19.223Z,42.34
2023-03-17T15:01:49.330Z,42.37
2023-03-17T15:04:21.245Z,42.38
2023-03-17T15:06:53.044Z,42.40
2023-03-17T15:09:28.164Z,42.41
2023-03-17T15:12:02.713Z,42.40
2023-03-17T15:14:38.882Z,42.44
2023-03-17T15:17:18.053Z,42.45
2023-03-17T15:19:51.379Z,42.44
2023-03-17T15:22:27.168Z,42.46
2023-03-17T15:25:04.616Z,42.48
2023-03-17T15:27:33.881Z,42.49
2023-03-17T15:30:07.505Z,42.49
2023-03-17T15:32:37.170Z,42.58
2023-03-17T15:35:09.487Z,42.67
2023-03-17T15:37:38.749Z,42.69
2023-03-17T15:40:10.242Z,42.68
2023-03-17T15:42:40.870Z,42.65
2023-03-17T15:45:16.175Z,42.64
2023-03-17T15:47:47.708Z,42.61
2023-03-17T15:50:23.967Z,42.58
2023-03-17T15:52:55.849Z,42.52
2023-03-17T15:55:30.679Z,42.48
2023-03-17T15:58:00.938Z,42.44
2023-03-17T16:00:33.526Z,42.45
2023-03-17T16:03:16.674Z,42.44
2023-03-17T16:05:48.017Z,42.43
2023-03-17T16:08:18.225Z,42.41
2023-03-17T16:10:48.521Z,42.39
2023-03-17T16:13:17.757Z,42.39
2023-03-17T16:15:57.242Z,42.38
2023-03-17T16:18:34.284Z,42.36
2023-03-17T16:21:05.081Z,42.36
2023-03-17T16:23:37.617Z,42.36
2023-03-17T16:26:15.579Z,42.35
2023-03-17T16:28:47.868Z,42.36
2023-03-17T16:31:25.154Z,42.34
2023-03-17T16:33:55.646Z,42.35
2023-03-17T16:36:27.751Z,42.36
2023-03-17T16:38:57.270Z,42.37
2023-03-17T16:41:29.595Z,42.37
2023-03-17T16:44:01.660Z,42.38
2023-03-17T16:46:36.022Z,42.37
2023-03-17T16:49:05.710Z,42.36
2023-03-17T16:51:35.052Z,42.38
2023-03-17T16:54:04.417Z,42.36
2023-03-17T16:56:34.183Z,42.38
2023-03-17T16:59:03.549Z,42.37
2023-03-17T17:01:36.291Z,42.39
2023-03-17T17:04:11.383Z,42.36
2023-03-17T17:06:40.560Z,42.39
2023-03-17T17:09:10.091Z,42.38
2023-03-17T17:11:39.448Z,42.36
2023-03-17T17:14:08.979Z,42.35
2023-03-17T17:16:41.539Z,42.33
2023-03-17T17:19:17.652Z,42.31
2023-03-17T17:21:46.844Z,42.28
2023-03-17T17:24:17.820Z,42.24
2023-03-17T17:26:47.018Z,42.21
2023-03-17T17:29:16.433Z,42.18
2023-03-17T17:31:48.471Z,42.17
2023-03-17T17:34:17.738Z,42.36
2023-03-17T17:36:47.269Z,42.33
2023-03-17T17:39:16.757Z,42.30
2023-03-17T17:41:45.829Z,42.28
2023-03-17T17:44:15.484Z,42.24
2023-03-17T17:46:47.488Z,42.20
2023-03-17T17:49:16.782Z,42.19
2023-03-17T17:51:46.412Z,42.15
2023-03-17T17:54:15.847Z,42.14
2023-03-17T17:56:46.994Z,42.13
2023-03-17T17:59:16.764Z,42.13
2023-03-17T18:01:48.642Z,42.13
2023-03-17T18:04:18.280Z,42.13
2023-03-17T18:06:48.883Z,42.13
2023-03-17T18:09:18.348Z,42.14
2023-03-17T18:11:47.709Z,42.14
2023-03-17T18:14:17.243Z,42.16
2023-03-17T18:16:49.180Z,42.19
2023-03-17T18:19:19.213Z,42.19
2023-03-17T18:21:48.449Z,42.20
2023-03-17T18:24:18.850Z,42.21
2023-03-17T18:26:48.013Z,42.23
2023-03-17T18:29:17.370Z,42.25
2023-03-17T18:31:55.679Z,42.26
2023-03-17T18:34:30.572Z,42.27
2023-03-17T18:37:02.590Z,42.28
2023-03-17T18:39:32.761Z,42.29
2023-03-17T18:42:02.489Z,42.32
2023-03-17T18:44:32.122Z,42.32
2023-03-17T18:47:04.695Z,42.32
2023-03-17T18:49:34.001Z,42.34
2023-03-17T18:52:03.380Z,42.35
2023-03-17T18:54:33.612Z,42.37
2023-03-17T18:57:02.945Z,42.38
2023-03-17T18:59:32.438Z,42.39
2023-03-17T19:02:04.780Z,42.41
2023-03-17T19:04:35.026Z,42.43
2023-03-17T19:07:04.217Z,42.46
2023-03-17T19:09:33.521Z,42.59
2023-03-17T19:12:02.782Z,42.69
2023-03-17T19:14:33.162Z,42.73
2023-03-17T19:17:05.590Z,42.77
2023-03-17T19:19:35.814Z,42.76
2023-03-17T19:22:06.412Z,42.73
2023-03-17T19:24:37.795Z,42.74
2023-03-17T19:27:07.286Z,42.74
2023-03-17T19:29:36.697Z,42.70
2023-03-17T19:32:08.871Z,42.69
2023-03-17T19:34:38.258Z,42.90
2023-03-17T19:37:07.633Z,42.89
2023-03-17T19:39:37.984Z,42.85
2023-03-17T19:42:07.505Z,42.82
2023-03-17T19:44:37.002Z,42.79
2023-03-17T19:47:09.200Z,42.75
2023-03-17T19:49:39.024Z,42.73
2023-03-17T19:52:09.663Z,42.68
2023-03-17T19:54:43.589Z,42.67
2023-03-17T19:57:13.288Z,42.65
2023-03-17T19:59:42.804Z,42.64
2023-03-17T20:02:17.865Z,42.64
2023-03-17T20:04:47.144Z,42.63
2023-03-17T20:07:16.638Z,42.63
2023-03-17T20:09:48.104Z,42.62
2023-03-17T20:12:17.314Z,42.62
2023-03-17T20:14:46.807Z,42.63
2023-03-17T20:17:19.144Z,42.63
2023-03-17T20:19:48.321Z,42.64
2023-03-17T20:22:17.717Z,42.65
2023-03-17T20:24:47.105Z,42.67
2023-03-17T20:27:16.342Z,42.68
2023-03-17T20:29:48.606Z,42.70
2023-03-17T20:32:21.025Z,42.72
2023-03-17T20:34:50.941Z,42.74
2023-03-17T20:37:20.135Z,42.77
2023-03-17T20:39:49.628Z,42.78
2023-03-17T20:42:20.572Z,42.79
2023-03-17T20:44:53.177Z,42.81
2023-03-17T20:47:24.956Z,42.81
2023-03-17T20:49:58.770Z,42.83
2023-03-17T20:52:30.282Z,42.83
2023-03-17T20:55:00.200Z,42.85
2023-03-17T20:57:30.322Z,42.86
2023-03-17T20:59:59.724Z,42.87
2023-03-17T21:02:31.812Z,42.87
2023-03-17T21:05:01.270Z,42.86
2023-03-17T21:07:30.707Z,42.87
2023-03-17T21:10:02.187Z,42.87
2023-03-17T21:12:32.171Z,42.87
2023-03-17T21:15:02.230Z,42.87
2023-03-17T21:17:34.452Z,42.88
2023-03-17T21:20:03.996Z,42.87
2023-03-17T21:22:34.465Z,42.88
2023-03-17T21:25:03.817Z,42.88
2023-03-17T21:27:34.288Z,42.90
2023-03-17T21:30:04.441Z,42.89
2023-03-17T21:32:36.936Z,42.98
2023-03-17T21:35:08.029Z,43.15
2023-03-17T21:37:37.431Z,43.12
2023-03-17T21:40:08.582Z,43.10
2023-03-17T21:42:37.945Z,43.08
2023-03-17T21:45:07.965Z,43.07
2023-03-17T21:47:41.356Z,43.07
2023-03-17T21:50:12.003Z,43.08
2023-03-17T21:52:41.184Z,43.18
2023-03-17T21:55:11.462Z,43.22
2023-03-17T21:57:40.979Z,43.23
2023-03-17T22:00:12.671Z,43.22
2023-03-17T22:02:45.115Z,43.25
2023-03-17T22:05:14.396Z,43.24
2023-03-17T22:07:44.047Z,43.21
2023-03-17T22:10:13.639Z,43.22
2023-03-17T22:12:42.942Z,43.19
2023-03-17T22:15:13.682Z,43.18
2023-03-17T22:17:45.725Z,43.18
2023-03-17T22:20:15.326Z,43.17
2023-03-17T22:22:44.750Z,43.17
2023-03-17T22:25:14.377Z,43.16
2023-03-17T22:27:43.764Z,43.16
2023-03-17T22:30:14.680Z,43.16
2023-03-17T22:32:46.897Z,43.17
2023-03-17T22:35:19.350Z,43.17
2023-03-17T22:37:48.530Z,43.18
2023-03-17T22:40:19.218Z,43.19
2023-03-17T22:42:48.577Z,43.20
2023-03-17T22:45:18.619Z,43.21
2023-03-17T22:47:50.693Z,43.23
2023-03-17T22:50:20.560Z,43.24
2023-03-17T22:52:49.705Z,43.24
2023-03-17T22:55:19.404Z,43.25
2023-03-17T22:57:48.903Z,43.27
2023-03-17T23:00:19.690Z,43.28
2023-03-17T23:02:51.751Z,43.29
2023-03-17T23:05:21.134Z,43.31
2023-03-17T23:07:51.787Z,43.32
2023-03-17T23:10:23.208Z,43.34
2023-03-17T23:12:53.222Z,43.36
2023-03-17T23:15:23.004Z,43.37
2023-03-17T23:17:54.882Z,43.39
2023-03-17T23:20:24.609Z,43.40
2023-03-17T23:22:53.883Z,43.41
2023-03-17T23:25:23.613Z,43.41
2023-03-17T23:27:53.033Z,43.44
2023-03-17T23:30:22.487Z,43.46
2023-03-17T23:32:54.790Z,43.58
2023-03-17T23:35:25.301Z,43.77
2023-03-17T23:37:54.567Z,43.74
2023-03-17T23:40:24.405Z,43.71
2023-03-17T23:42:55.205Z,43.72
2023-03-17T23:45:24.914Z,43.72
2023-03-17T23:47:57.600Z,43.70
2023-03-17T23:50:26.830Z,43.71
2023-03-17T23:52:56.243Z,43.71
2023-03-17T23:55:25.875Z,43.69
2023-03-17T23:57:55.254Z,43.69
